sensor_id;sensor_type;location;lat;lon;timestamp;pressure;altitude;pressure_sealevel;temperature;humidity
17635;BME280;8936;49.010;12.120;2023-05-23T00:01:04;97412.81;;;23.19;86.41
17635;BME280;8936;49.010;12.120;2023-05-23T00:03:33;97408.47;;;23.72;83.44
17635;BME280;8936;49.010;12.120;2023-05-23T00:06:00;97425.28;;;24.15;79.73
17635;BME280;8936;49.010;12.120;2023-05-23T00:08:27;97421.66;;;24.31;77.31
17635;BME280;8936;49.010;12.120;2023-05-23T00:10:53;97427.00;;;24.46;75.76
17635;BME280;8936;49.010;12.120;2023-05-23T00:13:19;97413.81;;;24.52;74.58
17635;BME280;8936;49.010;12.120;2023-05-23T00:15:46;97419.22;;;23.64;77.89
17635;BME280;8936;49.010;12.120;2023-05-23T00:18:13;97423.59;;;23.88;79.13
17635;BME280;8936;49.010;12.120;2023-05-23T00:20:41;97427.78;;;24.05;78.26
17635;BME280;8936;49.010;12.120;2023-05-23T00:23:08;97424.22;;;24.20;76.19
17635;BME280;8936;49.010;12.120;2023-05-23T00:25:35;97427.91;;;24.31;75.12
17635;BME280;8936;49.010;12.120;2023-05-23T00:28:01;97428.81;;;24.39;74.12
17635;BME280;8936;49.010;12.120;2023-05-23T00:30:28;97423.84;;;24.44;73.54
17635;BME280;8936;49.010;12.120;2023-05-23T00:32:55;97429.31;;;24.44;73.00
17635;BME280;8936;49.010;12.120;2023-05-23T00:35:21;97427.72;;;24.43;72.84
17635;BME280;8936;49.010;12.120;2023-05-23T00:37:50;97426.88;;;24.39;72.49
17635;BME280;8936;49.010;12.120;2023-05-23T00:40:16;97426.47;;;24.37;72.87
17635;BME280;8936;49.010;12.120;2023-05-23T00:42:42;97428.81;;;24.39;73.24
17635;BME280;8936;49.010;12.120;2023-05-23T00:45:11;97440.09;;;24.37;73.31
17635;BME280;8936;49.010;12.120;2023-05-23T00:47:37;97445.91;;;24.36;73.49
17635;BME280;8936;49.010;12.120;2023-05-23T00:50:05;97443.97;;;24.36;73.51
17635;BME280;8936;49.010;12.120;2023-05-23T00:52:32;97443.16;;;24.32;73.85
17635;BME280;8936;49.010;12.120;2023-05-23T00:55:00;97450.53;;;24.32;74.08
17635;BME280;8936;49.010;12.120;2023-05-23T00:57:27;97444.59;;;24.26;74.43
17635;BME280;8936;49.010;12.120;2023-05-23T00:59:53;97453.94;;;24.25;75.05
17635;BME280;8936;49.010;12.120;2023-05-23T01:02:20;97442.94;;;24.22;75.65
17635;BME280;8936;49.010;12.120;2023-05-23T01:04:47;97448.22;;;23.92;76.80
17635;BME280;8936;49.010;12.120;2023-05-23T01:07:18;97441.91;;;23.49;81.51
17635;BME280;8936;49.010;12.120;2023-05-23T01:09:44;97449.84;;;23.77;80.35
17635;BME280;8936;49.010;12.120;2023-05-23T01:12:16;97440.44;;;23.94;78.69
17635;BME280;8936;49.010;12.120;2023-05-23T01:14:45;97450.41;;;24.05;77.41
17635;BME280;8936;49.010;12.120;2023-05-23T01:17:14;97459.09;;;24.11;77.09
17635;BME280;8936;49.010;12.120;2023-05-23T01:19:54;97461.50;;;24.12;76.85
17635;BME280;8936;49.010;12.120;2023-05-23T01:22:30;97456.66;;;24.06;77.22
17635;BME280;8936;49.010;12.120;2023-05-23T01:25:00;97461.75;;;24.07;77.57
17635;BME280;8936;49.010;12.120;2023-05-23T01:27:44;97466.34;;;24.03;78.14
17635;BME280;8936;49.010;12.120;2023-05-23T01:30:14;97471.44;;;24.05;78.33
17635;BME280;8936;49.010;12.120;2023-05-23T01:32:43;97466.78;;;24.05;78.28
17635;BME280;8936;49.010;12.120;2023-05-23T01:35:11;97468.34;;;24.06;78.44
17635;BME280;8936;49.010;12.120;2023-05-23T01:37:39;97473.41;;;24.04;78.74
17635;BME280;8936;49.010;12.120;2023-05-23T01:40:06;97465.56;;;24.03;79.02
17635;BME280;8936;49.010;12.120;2023-05-23T01:42:33;97476.84;;;24.01;78.97
17635;BME280;8936;49.010;12.120;2023-05-23T01:45:01;97476.78;;;23.98;79.26
17635;BME280;8936;49.010;12.120;2023-05-23T01:47:30;97473.53;;;23.92;79.46
17635;BME280;8936;49.010;12.120;2023-05-23T01:49:57;97473.91;;;23.91;80.10
17635;BME280;8936;49.010;12.120;2023-05-23T01:52:24;97467.25;;;23.88;80.41
17635;BME280;8936;49.010;12.120;2023-05-23T01:54:51;97472.63;;;23.85;81.16
17635;BME280;8936;49.010;12.120;2023-05-23T01:57:18;97469.16;;;23.88;81.28
17635;BME280;8936;49.010;12.120;2023-05-23T01:59:45;97478.06;;;23.85;81.32
17635;BME280;8936;49.010;12.120;2023-05-23T02:02:12;97465.16;;;23.28;84.70
17635;BME280;8936;49.010;12.120;2023-05-23T02:04:39;97471.31;;;22.58;91.05
17635;BME280;8936;49.010;12.120;2023-05-23T02:07:05;97474.00;;;22.43;93.19
17635;BME280;8936;49.010;12.120;2023-05-23T02:09:32;97475.94;;;22.27;96.14
17635;BME280;8936;49.010;12.120;2023-05-23T02:11:58;97474.56;;;22.95;90.52
17635;BME280;8936;49.010;12.120;2023-05-23T02:14:25;97470.38;;;23.17;88.41
17635;BME280;8936;49.010;12.120;2023-05-23T02:16:52;97472.03;;;22.87;90.39
17635;BME280;8936;49.010;12.120;2023-05-23T02:19:20;97465.91;;;23.09;89.56
17635;BME280;8936;49.010;12.120;2023-05-23T02:21:46;97468.31;;;23.30;87.34
17635;BME280;8936;49.010;12.120;2023-05-23T02:24:14;97471.03;;;23.45;85.90
17635;BME280;8936;49.010;12.120;2023-05-23T02:26:41;97473.88;;;23.52;84.97
17635;BME280;8936;49.010;12.120;2023-05-23T02:29:07;97468.19;;;23.57;84.32
17635;BME280;8936;49.010;12.120;2023-05-23T02:31:34;97473.63;;;23.57;84.03
17635;BME280;8936;49.010;12.120;2023-05-23T02:34:01;97468.97;;;23.58;83.98
17635;BME280;8936;49.010;12.120;2023-05-23T02:36:28;97481.72;;;23.54;84.00
17635;BME280;8936;49.010;12.120;2023-05-23T02:38:57;97475.97;;;23.59;83.71
17635;BME280;8936;49.010;12.120;2023-05-23T02:41:23;97477.56;;;23.60;83.30
17635;BME280;8936;49.010;12.120;2023-05-23T02:43:50;97477.16;;;23.58;83.39
17635;BME280;8936;49.010;12.120;2023-05-23T02:46:16;97479.06;;;23.57;83.31
17635;BME280;8936;49.010;12.120;2023-05-23T02:48:42;97489.09;;;23.53;83.77
17635;BME280;8936;49.010;12.120;2023-05-23T02:51:09;97488.63;;;23.32;84.77
17635;BME280;8936;49.010;12.120;2023-05-23T02:53:38;97480.94;;;23.03;86.98
17635;BME280;8936;49.010;12.120;2023-05-23T02:56:05;97483.16;;;22.97;87.86
17635;BME280;8936;49.010;12.120;2023-05-23T02:58:32;97482.84;;;23.18;86.56
17635;BME280;8936;49.010;12.120;2023-05-23T03:01:00;97482.00;;;23.14;86.43
17635;BME280;8936;49.010;12.120;2023-05-23T03:03:26;97478.22;;;23.03;87.22
17635;BME280;8936;49.010;12.120;2023-05-23T03:05:54;97476.38;;;23.07;86.72
17635;BME280;8936;49.010;12.120;2023-05-23T03:08:21;97471.91;;;22.99;86.99
17635;BME280;8936;49.010;12.120;2023-05-23T03:10:49;97469.53;;;22.97;87.36
17635;BME280;8936;49.010;12.120;2023-05-23T03:13:16;97474.53;;;23.11;86.42
17635;BME280;8936;49.010;12.120;2023-05-23T03:15:42;97470.53;;;23.24;85.37
17635;BME280;8936;49.010;12.120;2023-05-23T03:18:08;97473.50;;;23.35;84.27
17635;BME280;8936;49.010;12.120;2023-05-23T03:20:35;97469.97;;;23.34;83.90
17635;BME280;8936;49.010;12.120;2023-05-23T03:23:01;97473.75;;;23.45;83.29
17635;BME280;8936;49.010;12.120;2023-05-23T03:25:28;97467.69;;;23.36;83.35
17635;BME280;8936;49.010;12.120;2023-05-23T03:27:55;97470.63;;;23.12;85.14
17635;BME280;8936;49.010;12.120;2023-05-23T03:30:34;97459.63;;;22.89;86.48
17635;BME280;8936;49.010;12.120;2023-05-23T03:33:01;97463.94;;;22.75;88.19
17635;BME280;8936;49.010;12.120;2023-05-23T03:35:27;97467.28;;;22.84;88.43
17635;BME280;8936;49.010;12.120;2023-05-23T03:37:53;97466.19;;;23.04;87.01
17635;BME280;8936;49.010;12.120;2023-05-23T03:40:20;97468.50;;;23.21;85.53
17635;BME280;8936;49.010;12.120;2023-05-23T03:42:46;97474.41;;;23.23;84.88
17635;BME280;8936;49.010;12.120;2023-05-23T03:45:14;97477.38;;;23.18;84.97
17635;BME280;8936;49.010;12.120;2023-05-23T03:47:42;97476.97;;;23.16;85.68
17635;BME280;8936;49.010;12.120;2023-05-23T03:50:09;97465.34;;;23.19;85.21
17635;BME280;8936;49.010;12.120;2023-05-23T03:52:35;97471.22;;;23.21;84.76
17635;BME280;8936;49.010;12.120;2023-05-23T03:55:02;97474.34;;;23.04;86.06
17635;BME280;8936;49.010;12.120;2023-05-23T03:57:28;97479.66;;;22.81;87.49
17635;BME280;8936;49.010;12.120;2023-05-23T03:59:54;97477.28;;;22.80;88.40
17635;BME280;8936;49.010;12.120;2023-05-23T04:02:22;97477.47;;;22.71;88.41
17635;BME280;8936;49.010;12.120;2023-05-23T04:04:49;97487.59;;;22.27;91.47
17635;BME280;8936;49.010;12.120;2023-05-23T04:07:15;97481.78;;;22.13;94.18
17635;BME280;8936;49.010;12.120;2023-05-23T04:09:42;97484.91;;;22.58;91.23
17635;BME280;8936;49.010;12.120;2023-05-23T04:12:08;97485.88;;;22.82;89.09
17635;BME280;8936;49.010;12.120;2023-05-23T04:14:36;97484.28;;;22.96;88.12
17635;BME280;8936;49.010;12.120;2023-05-23T04:17:03;97484.13;;;23.05;87.23
17635;BME280;8936;49.010;12.120;2023-05-23T04:19:31;97480.13;;;23.18;86.16
17635;BME280;8936;49.010;12.120;2023-05-23T04:21:57;97475.84;;;23.17;86.10
17635;BME280;8936;49.010;12.120;2023-05-23T04:24:23;97482.69;;;23.11;86.31
17635;BME280;8936;49.010;12.120;2023-05-23T04:26:50;97477.16;;;23.07;87.11
17635;BME280;8936;49.010;12.120;2023-05-23T04:29:16;97480.94;;;23.03;87.76
17635;BME280;8936;49.010;12.120;2023-05-23T04:31:43;97488.41;;;23.06;87.98
17635;BME280;8936;49.010;12.120;2023-05-23T04:34:10;97487.25;;;23.07;88.31
17635;BME280;8936;49.010;12.120;2023-05-23T04:36:37;97509.13;;;23.10;88.35
17635;BME280;8936;49.010;12.120;2023-05-23T04:39:04;97514.69;;;23.14;88.21
17635;BME280;8936;49.010;12.120;2023-05-23T04:41:30;97518.97;;;23.15;88.37
17635;BME280;8936;49.010;12.120;2023-05-23T04:43:57;97518.25;;;23.18;88.35
17635;BME280;8936;49.010;12.120;2023-05-23T04:46:23;97511.66;;;23.19;88.35
17635;BME280;8936;49.010;12.120;2023-05-23T04:48:50;97512.47;;;23.20;88.38
17635;BME280;8936;49.010;12.120;2023-05-23T04:51:17;97516.78;;;23.21;88.71
17635;BME280;8936;49.010;12.120;2023-05-23T04:53:47;97517.41;;;23.14;89.74
17635;BME280;8936;49.010;12.120;2023-05-23T04:56:13;97510.97;;;23.22;89.64
17635;BME280;8936;49.010;12.120;2023-05-23T04:58:42;97515.34;;;23.27;89.45
17635;BME280;8936;49.010;12.120;2023-05-23T05:01:09;97512.38;;;23.16;90.98
17635;BME280;8936;49.010;12.120;2023-05-23T05:03:35;97517.28;;;23.26;91.01
17635;BME280;8936;49.010;12.120;2023-05-23T05:06:02;97518.09;;;23.27;91.56
17635;BME280;8936;49.010;12.120;2023-05-23T05:08:30;97520.72;;;23.23;92.93
17635;BME280;8936;49.010;12.120;2023-05-23T05:10:57;97518.78;;;23.24;93.11
17635;BME280;8936;49.010;12.120;2023-05-23T05:13:24;97521.59;;;23.27;93.64
17635;BME280;8936;49.010;12.120;2023-05-23T05:15:50;97525.97;;;23.32;93.31
17635;BME280;8936;49.010;12.120;2023-05-23T05:18:17;97525.88;;;23.28;94.85
17635;BME280;8936;49.010;12.120;2023-05-23T05:20:44;97528.38;;;23.18;96.00
17635;BME280;8936;49.010;12.120;2023-05-23T05:23:11;97529.78;;;23.27;95.68
17635;BME280;8936;49.010;12.120;2023-05-23T05:25:37;97522.19;;;23.36;95.28
17635;BME280;8936;49.010;12.120;2023-05-23T05:28:06;97524.25;;;23.24;97.36
17635;BME280;8936;49.010;12.120;2023-05-23T05:30:33;97528.75;;;22.85;100.00
17635;BME280;8936;49.010;12.120;2023-05-23T05:33:00;97528.56;;;22.93;100.00
17635;BME280;8936;49.010;12.120;2023-05-23T05:35:28;97521.78;;;23.19;98.63
17635;BME280;8936;49.010;12.120;2023-05-23T05:37:54;97531.09;;;23.33;98.01
17635;BME280;8936;49.010;12.120;2023-05-23T05:40:21;97537.47;;;23.56;96.36
17635;BME280;8936;49.010;12.120;2023-05-23T05:42:47;97538.03;;;23.65;96.00
17635;BME280;8936;49.010;12.120;2023-05-23T05:45:15;97540.22;;;23.76;94.75
17635;BME280;8936;49.010;12.120;2023-05-23T05:47:42;97539.13;;;23.80;97.57
17635;BME280;8936;49.010;12.120;2023-05-23T05:50:08;97544.81;;;23.91;95.45
17635;BME280;8936;49.010;12.120;2023-05-23T05:52:35;97545.22;;;23.93;97.07
17635;BME280;8936;49.010;12.120;2023-05-23T05:55:04;97542.25;;;23.98;98.43
17635;BME280;8936;49.010;12.120;2023-05-23T05:57:30;97540.88;;;23.88;97.58
17635;BME280;8936;49.010;12.120;2023-05-23T05:59:57;97550.13;;;24.03;96.72
17635;BME280;8936;49.010;12.120;2023-05-23T06:02:24;97548.41;;;23.95;97.87
17635;BME280;8936;49.010;12.120;2023-05-23T06:04:51;97543.59;;;24.27;96.37
17635;BME280;8936;49.010;12.120;2023-05-23T06:07:18;97551.59;;;24.35;96.83
17635;BME280;8936;49.010;12.120;2023-05-23T06:09:44;97551.63;;;24.39;95.93
17635;BME280;8936;49.010;12.120;2023-05-23T06:12:10;97545.50;;;24.45;95.89
17635;BME280;8936;49.010;12.120;2023-05-23T06:14:37;97554.88;;;24.44;95.72
17635;BME280;8936;49.010;12.120;2023-05-23T06:17:03;97554.81;;;24.63;94.89
17635;BME280;8936;49.010;12.120;2023-05-23T06:19:31;97551.50;;;24.73;94.09
17635;BME280;8936;49.010;12.120;2023-05-23T06:21:58;97554.09;;;24.66;95.17
17635;BME280;8936;49.010;12.120;2023-05-23T06:24:25;97555.19;;;24.62;95.83
17635;BME280;8936;49.010;12.120;2023-05-23T06:26:51;97550.91;;;24.84;94.84
17635;BME280;8936;49.010;12.120;2023-05-23T06:29:18;97559.31;;;24.94;93.51
17635;BME280;8936;49.010;12.120;2023-05-23T06:31:44;97563.25;;;24.97;94.12
17635;BME280;8936;49.010;12.120;2023-05-23T06:34:10;97561.88;;;25.10;93.13
17635;BME280;8936;49.010;12.120;2023-05-23T06:36:38;97561.91;;;24.87;93.92
17635;BME280;8936;49.010;12.120;2023-05-23T06:39:06;97564.66;;;24.68;95.98
17635;BME280;8936;49.010;12.120;2023-05-23T06:41:34;97571.34;;;24.70;96.20
17635;BME280;8936;49.010;12.120;2023-05-23T06:44:00;97565.19;;;24.96;95.38
17635;BME280;8936;49.010;12.120;2023-05-23T06:46:26;97562.69;;;24.88;95.44
17635;BME280;8936;49.010;12.120;2023-05-23T06:48:53;97571.19;;;24.83;96.13
17635;BME280;8936;49.010;12.120;2023-05-23T06:51:19;97568.00;;;24.81;96.04
17635;BME280;8936;49.010;12.120;2023-05-23T06:53:47;97570.53;;;25.12;94.93
17635;BME280;8936;49.010;12.120;2023-05-23T06:56:13;97568.72;;;25.23;93.32
17635;BME280;8936;49.010;12.120;2023-05-23T06:58:40;97574.63;;;25.25;92.97
17635;BME280;8936;49.010;12.120;2023-05-23T07:01:06;97565.44;;;25.37;92.59
17635;BME280;8936;49.010;12.120;2023-05-23T07:03:34;97575.41;;;25.25;91.74
17635;BME280;8936;49.010;12.120;2023-05-23T07:06:02;97568.97;;;25.37;92.31
17635;BME280;8936;49.010;12.120;2023-05-23T07:08:28;97560.84;;;25.44;91.41
17635;BME280;8936;49.010;12.120;2023-05-23T07:10:56;97572.38;;;25.31;91.35
17635;BME280;8936;49.010;12.120;2023-05-23T07:13:22;97573.94;;;25.32;92.24
17635;BME280;8936;49.010;12.120;2023-05-23T07:15:49;97572.06;;;25.36;92.37
17635;BME280;8936;49.010;12.120;2023-05-23T07:18:15;97576.25;;;25.30;92.24
17635;BME280;8936;49.010;12.120;2023-05-23T07:20:41;97574.44;;;25.37;91.92
17635;BME280;8936;49.010;12.120;2023-05-23T07:23:08;97577.38;;;25.25;93.11
17635;BME280;8936;49.010;12.120;2023-05-23T07:25:34;97576.72;;;25.09;93.86
17635;BME280;8936;49.010;12.120;2023-05-23T07:28:02;97589.03;;;25.22;92.84
17635;BME280;8936;49.010;12.120;2023-05-23T07:30:28;97586.44;;;25.06;94.45
17635;BME280;8936;49.010;12.120;2023-05-23T07:32:55;97582.72;;;24.95;94.70
17635;BME280;8936;49.010;12.120;2023-05-23T07:35:21;97588.25;;;24.99;94.82
17635;BME280;8936;49.010;12.120;2023-05-23T07:37:50;97594.84;;;24.98;95.30
17635;BME280;8936;49.010;12.120;2023-05-23T07:40:17;97584.09;;;24.86;95.72
17635;BME280;8936;49.010;12.120;2023-05-23T07:42:43;97580.59;;;24.85;96.89
17635;BME280;8936;49.010;12.120;2023-05-23T07:45:11;97587.84;;;24.97;96.01
17635;BME280;8936;49.010;12.120;2023-05-23T07:47:38;97588.44;;;25.09;95.00
17635;BME280;8936;49.010;12.120;2023-05-23T07:50:04;97599.78;;;25.34;93.30
17635;BME280;8936;49.010;12.120;2023-05-23T07:52:31;97596.91;;;25.27;93.41
17635;BME280;8936;49.010;12.120;2023-05-23T07:54:58;97599.25;;;25.25;93.96
17635;BME280;8936;49.010;12.120;2023-05-23T07:57:24;97599.13;;;25.18;92.94
17635;BME280;8936;49.010;12.120;2023-05-23T07:59:51;97593.41;;;25.04;93.97
17635;BME280;8936;49.010;12.120;2023-05-23T08:02:19;97596.66;;;25.13;93.95
17635;BME280;8936;49.010;12.120;2023-05-23T08:04:46;97598.38;;;25.21;93.80
17635;BME280;8936;49.010;12.120;2023-05-23T08:07:12;97597.81;;;25.35;93.36
17635;BME280;8936;49.010;12.120;2023-05-23T08:09:39;97599.69;;;25.53;91.73
17635;BME280;8936;49.010;12.120;2023-05-23T08:12:05;97595.06;;;25.57;90.59
17635;BME280;8936;49.010;12.120;2023-05-23T08:14:32;97588.59;;;25.69;91.31
17635;BME280;8936;49.010;12.120;2023-05-23T08:16:58;97580.50;;;25.76;90.23
17635;BME280;8936;49.010;12.120;2023-05-23T08:19:26;97578.56;;;25.76;90.45
17635;BME280;8936;49.010;12.120;2023-05-23T08:21:52;97583.69;;;25.82;90.76
17635;BME280;8936;49.010;12.120;2023-05-23T08:24:18;97597.34;;;25.52;89.59
17635;BME280;8936;49.010;12.120;2023-05-23T08:26:45;97600.53;;;25.57;92.55
17635;BME280;8936;49.010;12.120;2023-05-23T08:29:12;97593.25;;;25.65;90.85
17635;BME280;8936;49.010;12.120;2023-05-23T08:31:38;97595.66;;;25.47;91.32
17635;BME280;8936;49.010;12.120;2023-05-23T08:34:05;97609.22;;;25.63;89.49
17635;BME280;8936;49.010;12.120;2023-05-23T08:36:33;97605.84;;;25.73;89.98
17635;BME280;8936;49.010;12.120;2023-05-23T08:39:00;97606.41;;;25.86;88.79
17635;BME280;8936;49.010;12.120;2023-05-23T08:41:28;97609.47;;;25.81;86.25
17635;BME280;8936;49.010;12.120;2023-05-23T08:43:55;97622.00;;;25.10;89.79
17635;BME280;8936;49.010;12.120;2023-05-23T08:46:22;97621.84;;;25.22;93.08
17635;BME280;8936;49.010;12.120;2023-05-23T08:48:49;97619.41;;;25.66;90.81
17635;BME280;8936;49.010;12.120;2023-05-23T08:51:16;97611.78;;;25.78;88.62
17635;BME280;8936;49.010;12.120;2023-05-23T08:53:44;97623.22;;;25.84;88.67
17635;BME280;8936;49.010;12.120;2023-05-23T08:56:12;97618.34;;;26.00;87.23
17635;BME280;8936;49.010;12.120;2023-05-23T08:58:39;97612.00;;;25.93;87.39
17635;BME280;8936;49.010;12.120;2023-05-23T09:01:07;97622.59;;;25.98;85.30
17635;BME280;8936;49.010;12.120;2023-05-23T09:03:34;97624.84;;;26.18;85.40
17635;BME280;8936;49.010;12.120;2023-05-23T09:06:02;97636.00;;;26.33;83.40
17635;BME280;8936;49.010;12.120;2023-05-23T09:08:31;97633.03;;;26.45;82.31
17635;BME280;8936;49.010;12.120;2023-05-23T09:10:58;97633.75;;;26.12;81.47
17635;BME280;8936;49.010;12.120;2023-05-23T09:13:26;97630.63;;;26.40;82.12
17635;BME280;8936;49.010;12.120;2023-05-23T09:15:55;97635.72;;;26.11;80.29
17635;BME280;8936;49.010;12.120;2023-05-23T09:18:23;97637.22;;;25.53;82.18
17635;BME280;8936;49.010;12.120;2023-05-23T09:20:50;97631.72;;;26.05;82.37
17635;BME280;8936;49.010;12.120;2023-05-23T09:23:16;97638.31;;;26.30;80.62
17635;BME280;8936;49.010;12.120;2023-05-23T09:25:45;97636.09;;;26.40;79.10
17635;BME280;8936;49.010;12.120;2023-05-23T09:28:13;97635.38;;;26.46;79.83
17635;BME280;8936;49.010;12.120;2023-05-23T09:30:39;97629.97;;;26.20;78.41
17635;BME280;8936;49.010;12.120;2023-05-23T09:33:05;97631.22;;;26.26;79.81
17635;BME280;8936;49.010;12.120;2023-05-23T09:35:32;97636.75;;;26.03;78.13
17635;BME280;8936;49.010;12.120;2023-05-23T09:38:01;97636.00;;;26.06;78.80
17635;BME280;8936;49.010;12.120;2023-05-23T09:40:28;97631.78;;;26.12;79.48
17635;BME280;8936;49.010;12.120;2023-05-23T09:42:54;97649.63;;;26.03;79.17
17635;BME280;8936;49.010;12.120;2023-05-23T09:45:29;97639.66;;;25.61;80.09
17635;BME280;8936;49.010;12.120;2023-05-23T09:47:56;97633.38;;;25.84;81.74
17635;BME280;8936;49.010;12.120;2023-05-23T09:50:23;97637.25;;;26.12;80.67
17635;BME280;8936;49.010;12.120;2023-05-23T09:52:49;97645.19;;;25.91;78.64
17635;BME280;8936;49.010;12.120;2023-05-23T09:55:18;97637.19;;;26.05;79.93
17635;BME280;8936;49.010;12.120;2023-05-23T09:57:44;97646.88;;;25.99;79.68
17635;BME280;8936;49.010;12.120;2023-05-23T10:00:13;97640.63;;;25.99;78.50
17635;BME280;8936;49.010;12.120;2023-05-23T10:02:53;97651.09;;;25.93;78.84
17635;BME280;8936;49.010;12.120;2023-05-23T10:05:26;97650.38;;;26.00;78.58
17635;BME280;8936;49.010;12.120;2023-05-23T10:07:56;97646.53;;;26.04;78.76
17635;BME280;8936;49.010;12.120;2023-05-23T10:10:23;97648.44;;;26.00;76.87
17635;BME280;8936;49.010;12.120;2023-05-23T10:12:52;97654.06;;;26.11;76.44
17635;BME280;8936;49.010;12.120;2023-05-23T10:15:21;97646.13;;;26.02;74.83
17635;BME280;8936;49.010;12.120;2023-05-23T10:17:59;97632.47;;;26.02;75.80
17635;BME280;8936;49.010;12.120;2023-05-23T10:20:27;97638.94;;;26.17;76.09
17635;BME280;8936;49.010;12.120;2023-05-23T10:22:55;97637.78;;;26.18;72.98
17635;BME280;8936;49.010;12.120;2023-05-23T10:25:23;97647.28;;;25.75;72.48
17635;BME280;8936;49.010;12.120;2023-05-23T10:27:52;97650.50;;;25.54;77.57
17635;BME280;8936;49.010;12.120;2023-05-23T10:30:22;97640.00;;;25.83;78.21
17635;BME280;8936;49.010;12.120;2023-05-23T10:32:49;97653.84;;;25.97;77.02
17635;BME280;8936;49.010;12.120;2023-05-23T10:35:19;97648.09;;;26.02;76.28
17635;BME280;8936;49.010;12.120;2023-05-23T10:37:48;97638.97;;;26.20;75.53
17635;BME280;8936;49.010;12.120;2023-05-23T10:40:19;97644.41;;;26.17;74.50
17635;BME280;8936;49.010;12.120;2023-05-23T10:42:48;97644.50;;;25.98;75.87
17635;BME280;8936;49.010;12.120;2023-05-23T10:45:17;97654.38;;;26.06;75.84
17635;BME280;8936;49.010;12.120;2023-05-23T10:47:45;97652.31;;;25.96;76.88
17635;BME280;8936;49.010;12.120;2023-05-23T10:50:12;97651.34;;;26.11;76.03
17635;BME280;8936;49.010;12.120;2023-05-23T10:52:40;97644.28;;;26.10;77.05
17635;BME280;8936;49.010;12.120;2023-05-23T10:55:11;97639.03;;;26.24;77.05
17635;BME280;8936;49.010;12.120;2023-05-23T10:57:38;97641.44;;;26.29;74.95
17635;BME280;8936;49.010;12.120;2023-05-23T11:00:11;97647.34;;;26.05;74.57
17635;BME280;8936;49.010;12.120;2023-05-23T11:02:37;97647.03;;;25.84;77.83
17635;BME280;8936;49.010;12.120;2023-05-23T11:05:20;97652.47;;;25.80;75.95
17635;BME280;8936;49.010;12.120;2023-05-23T11:08:01;97645.13;;;25.88;77.42
17635;BME280;8936;49.010;12.120;2023-05-23T11:10:31;97645.91;;;26.14;76.17
17635;BME280;8936;49.010;12.120;2023-05-23T11:13:04;97648.06;;;26.28;75.31
17635;BME280;8936;49.010;12.120;2023-05-23T11:15:40;97637.41;;;25.93;74.15
17635;BME280;8936;49.010;12.120;2023-05-23T11:18:06;97649.72;;;25.80;76.58
17635;BME280;8936;49.010;12.120;2023-05-23T11:20:33;97641.88;;;25.78;75.32
17635;BME280;8936;49.010;12.120;2023-05-23T11:23:06;97632.78;;;25.71;73.93
17635;BME280;8936;49.010;12.120;2023-05-23T11:25:40;97644.97;;;25.28;73.91
17635;BME280;8936;49.010;12.120;2023-05-23T11:28:07;97637.13;;;25.75;76.01
17635;BME280;8936;49.010;12.120;2023-05-23T11:30:34;97646.72;;;25.89;75.96
17635;BME280;8936;49.010;12.120;2023-05-23T11:33:05;97638.69;;;26.03;75.06
17635;BME280;8936;49.010;12.120;2023-05-23T11:35:32;97642.16;;;25.96;73.65
17635;BME280;8936;49.010;12.120;2023-05-23T11:37:58;97634.63;;;25.90;72.38
17635;BME280;8936;49.010;12.120;2023-05-23T11:40:28;97649.63;;;25.73;67.36
17635;BME280;8936;49.010;12.120;2023-05-23T11:42:55;97642.03;;;25.63;72.07
17635;BME280;8936;49.010;12.120;2023-05-23T11:45:21;97644.03;;;25.43;67.41
17635;BME280;8936;49.010;12.120;2023-05-23T11:47:47;97630.63;;;25.12;67.55
17635;BME280;8936;49.010;12.120;2023-05-23T11:50:14;97645.88;;;25.58;71.24
17635;BME280;8936;49.010;12.120;2023-05-23T11:52:40;97639.56;;;25.81;70.51
17635;BME280;8936;49.010;12.120;2023-05-23T11:55:07;97641.47;;;25.76;70.92
17635;BME280;8936;49.010;12.120;2023-05-23T11:57:37;97624.50;;;25.94;71.17
17635;BME280;8936;49.010;12.120;2023-05-23T12:00:05;97629.66;;;25.99;68.50
17635;BME280;8936;49.010;12.120;2023-05-23T12:02:37;97618.94;;;25.87;68.30
17635;BME280;8936;49.010;12.120;2023-05-23T12:05:05;97612.63;;;25.83;67.89
17635;BME280;8936;49.010;12.120;2023-05-23T12:07:32;97633.53;;;25.68;66.88
17635;BME280;8936;49.010;12.120;2023-05-23T12:10:00;97627.16;;;25.87;67.64
17635;BME280;8936;49.010;12.120;2023-05-23T12:12:27;97617.25;;;25.78;66.47
17635;BME280;8936;49.010;12.120;2023-05-23T12:14:55;97634.00;;;26.03;67.33
17635;BME280;8936;49.010;12.120;2023-05-23T12:17:22;97632.06;;;26.04;66.77
17635;BME280;8936;49.010;12.120;2023-05-23T12:19:49;97627.81;;;26.06;64.23
17635;BME280;8936;49.010;12.120;2023-05-23T12:22:20;97631.38;;;26.10;65.63
17635;BME280;8936;49.010;12.120;2023-05-23T12:24:47;97621.69;;;25.87;63.97
17635;BME280;8936;49.010;12.120;2023-05-23T12:27:14;97620.00;;;25.78;64.40
17635;BME280;8936;49.010;12.120;2023-05-23T12:29:41;97623.28;;;25.91;64.92
17635;BME280;8936;49.010;12.120;2023-05-23T12:32:09;97636.41;;;26.05;65.00
17635;BME280;8936;49.010;12.120;2023-05-23T12:34:39;97623.97;;;26.11;65.03
17635;BME280;8936;49.010;12.120;2023-05-23T12:37:06;97628.44;;;26.22;64.50
17635;BME280;8936;49.010;12.120;2023-05-23T12:39:33;97625.34;;;26.24;64.33
17635;BME280;8936;49.010;12.120;2023-05-23T12:42:07;97618.84;;;26.09;64.79
17635;BME280;8936;49.010;12.120;2023-05-23T12:44:33;97619.97;;;26.05;63.72
17635;BME280;8936;49.010;12.120;2023-05-23T12:47:00;97627.25;;;26.20;65.39
17635;BME280;8936;49.010;12.120;2023-05-23T12:49:27;97641.03;;;26.27;66.55
17635;BME280;8936;49.010;12.120;2023-05-23T12:51:54;97630.16;;;26.34;65.29
17635;BME280;8936;49.010;12.120;2023-05-23T12:54:20;97634.31;;;26.24;66.48
17635;BME280;8936;49.010;12.120;2023-05-23T12:56:46;97627.50;;;26.41;65.80
17635;BME280;8936;49.010;12.120;2023-05-23T12:59:13;97633.75;;;26.42;66.22
17635;BME280;8936;49.010;12.120;2023-05-23T13:01:39;97644.72;;;26.42;64.46